Time;durP1;ratioP1;P1;durP2;ratioP2;P2;SDS_P1;SDS_P2;PMS_P1;PMS_P2;Temp;Humidity;BMP_temperature;BMP_pressure;BME280_temperature;BME280_humidity;BME280_pressure;Samples;Min_cycle;Max_cycle;Signal;HPM_P1;HPM_P2
2021/01/26 00:01:34;;;;;;;0.50;0.40;;;;;;;2.43;97.42;100303.47;5073266;28;20471;-66
2021/01/26 00:04:00;;;;;;;0.57;0.40;;;;;;;2.44;96.89;100301.63;5073225;28;20464;-66
2021/01/26 00:06:27;;;;;;;5.70;2.87;;;;;;;2.40;96.96;100298.66;5073199;28;20459;-66
2021/01/26 00:08:53;;;;;;;0.40;0.30;;;;;;;2.41;97.36;100299.47;5072734;28;20491;-67
2021/01/26 00:11:19;;;;;;;0.40;0.30;;;;;;;2.46;97.23;100308.31;5072261;28;20452;-66
2021/01/26 00:13:45;;;;;;;0.60;0.60;;;;;;;2.46;97.81;100318.22;5073167;28;20449;-66
2021/01/26 00:16:11;;;;;;;8.43;1.40;;;;;;;2.47;97.92;100315.28;5073150;28;20470;-66
2021/01/26 00:18:37;;;;;;;0.93;0.60;;;;;;;2.49;97.49;100315.03;5073081;28;20532;-66
2021/01/26 00:21:03;;;;;;;0.70;0.57;;;;;;;2.48;97.67;100321.47;5066039;28;20469;-66
2021/01/26 00:23:30;;;;;;;0.50;0.50;;;;;;;2.50;97.80;100313.97;5052918;28;20443;-66
2021/01/26 00:25:56;;;;;;;0.67;0.67;;;;;;;2.50;97.68;100322.81;5052672;28;20941;-66
2021/01/26 00:28:22;;;;;;;19.73;1.43;;;;;;;2.51;97.55;100319.06;5052538;28;21011;-66
2021/01/26 00:30:49;;;;;;;3.27;1.70;;;;;;;2.53;97.75;100324.16;5052659;28;20952;-66
2021/01/26 00:33:18;;;;;;;1.10;1.10;;;;;;;2.53;97.50;100322.31;5052898;28;20806;-66
2021/01/26 00:35:44;;;;;;;0.93;0.67;;;;;;;2.54;96.99;100323.09;5052870;28;20449;-66
2021/01/26 00:38:11;;;;;;;2.93;0.80;;;;;;;2.49;97.37;100323.88;5052763;28;20469;-66
2021/01/26 00:40:38;;;;;;;0.40;0.40;;;;;;;2.49;96.44;100334.56;5052829;28;20537;-66
2021/01/26 00:43:06;;;;;;;0.40;0.33;;;;;;;2.45;96.93;100328.09;5052445;28;20446;-66
2021/01/26 00:45:32;;;;;;;0.50;0.50;;;;;;;2.46;96.69;100331.59;5052782;28;20442;-66
2021/01/26 00:47:58;;;;;;;0.40;0.33;;;;;;;2.46;96.54;100332.38;5052387;28;20489;-66
2021/01/26 00:50:26;;;;;;;0.90;0.90;;;;;;;2.43;95.91;100335.56;5052692;28;20444;-66
2021/01/26 00:52:52;;;;;;;0.57;0.57;;;;;;;2.40;96.01;100325.38;5052398;28;21025;-66
2021/01/26 00:55:21;;;;;;;1.13;0.60;;;;;;;2.41;95.66;100340.34;5052704;28;20545;-66
2021/01/26 00:57:48;;;;;;;1.57;0.97;;;;;;;2.42;95.96;100331.28;5052554;28;20466;-65
2021/01/26 01:00:18;;;;;;;1.47;0.60;;;;;;;2.28;95.57;100338.09;5052641;28;20446;-66
2021/01/26 01:02:44;;;;;;;1.30;1.00;;;;;;;2.35;95.94;100338.72;5052078;28;20450;-66
2021/01/26 01:05:12;;;;;;;0.60;0.60;;;;;;;2.40;95.44;100330.72;5052630;28;20494;-67
2021/01/26 01:07:38;;;;;;;0.40;0.30;;;;;;;2.43;94.93;100342.78;5052422;28;20490;-65
2021/01/26 01:10:06;;;;;;;1.50;0.63;;;;;;;2.43;94.93;100348.91;5052545;28;20454;-66
2021/01/26 01:12:32;;;;;;;0.80;0.80;;;;;;;2.39;95.34;100349.69;5052568;28;20838;-66
2021/01/26 01:14:59;;;;;;;4.67;2.00;;;;;;;2.37;95.58;100351.81;5052544;28;20438;-66
2021/01/26 01:17:25;;;;;;;0.50;0.30;;;;;;;2.42;95.99;100349.97;5052466;28;20531;-66
2021/01/26 01:19:52;;;;;;;2.40;0.87;;;;;;;2.42;95.18;100354.53;5052484;28;20445;-66
2021/01/26 01:22:18;;;;;;;1.10;1.00;;;;;;;2.39;95.02;100347.00;5052199;28;20536;-66
2021/01/26 01:24:44;;;;;;;0.93;0.93;;;;;;;2.40;94.87;100351.31;5055774;28;21002;-66
2021/01/26 01:27:10;;;;;;;0.60;0.40;;;;;;;2.41;95.29;100350.25;5056060;28;20845;-66
2021/01/26 01:29:36;;;;;;;9.47;1.43;;;;;;;2.41;95.09;100353.72;5056006;28;20849;-66
2021/01/26 01:32:03;;;;;;;4.43;1.40;;;;;;;2.40;94.69;100352.13;5056026;28;20445;-66
2021/01/26 01:34:29;;;;;;;0.40;0.30;;;;;;;2.39;94.85;100353.19;5055679;28;20442;-66
2021/01/26 01:36:55;;;;;;;0.60;0.60;;;;;;;2.38;95.15;100356.88;5055890;28;20548;-66
2021/01/26 01:39:21;;;;;;;0.40;0.30;;;;;;;2.36;95.02;100358.22;5055517;28;20511;-66
2021/01/26 01:41:47;;;;;;;0.60;0.60;;;;;;;2.35;94.35;100351.28;5055845;28;20517;-66
2021/01/26 01:44:14;;;;;;;1.67;0.67;;;;;;;2.34;94.86;100354.97;5055809;28;20491;-66
2021/01/26 01:46:43;;;;;;;4.83;1.93;;;;;;;2.28;94.80;100352.25;5055424;28;20793;-67
2021/01/26 01:49:17;;;;;;;2.37;0.90;;;;;;;2.30;94.83;100357.34;5079444;23;20652;-76
2021/01/26 01:51:44;;;;;;;0.50;0.40;;;;;;;2.33;94.37;100356.84;5055727;28;20833;-76
2021/01/26 01:54:15;;;;;;;0.63;0.63;;;;;;;2.28;93.90;100354.94;5056174;28;20542;-76
2021/01/26 01:56:45;;;;;;;1.60;1.03;;;;;;;2.24;93.82;100351.16;5063056;22;20493;-65
2021/01/26 01:59:17;;;;;;;3.07;1.00;;;;;;;2.22;93.97;100350.59;5056103;28;20471;-64
2021/01/26 02:01:43;;;;;;;2.33;1.03;;;;;;;2.19;94.23;100358.31;5055139;28;20436;-66
2021/01/26 02:04:13;;;;;;;0.97;0.90;;;;;;;2.19;94.33;100356.44;5055469;28;20449;-66
2021/01/26 02:06:43;;;;;;;1.43;1.33;;;;;;;2.21;94.27;100350.84;5055739;28;20448;-67
2021/01/26 02:09:14;;;;;;;0.40;0.40;;;;;;;2.13;94.31;100357.44;5055388;28;20493;-64
2021/01/26 02:11:41;;;;;;;4.23;1.30;;;;;;;2.12;94.74;100352.34;5055308;28;20495;-66
2021/01/26 02:14:07;;;;;;;0.67;0.67;;;;;;;2.02;94.66;100355.72;5055369;28;20464;-66
2021/01/26 02:16:46;;;;;;;0.40;0.40;;;;;;;1.99;94.65;100358.88;5054839;28;20446;-66
2021/01/26 02:19:43;;;;;;;0.90;0.90;;;;;;;1.95;94.56;100360.44;5055114;28;20468;-66
2021/01/26 02:22:31;;;;;;;2.03;0.60;;;;;;;1.91;94.85;100359.34;5054958;28;20495;-66
2021/01/26 02:25:24;;;;;;;1.60;1.13;;;;;;;1.85;94.89;100361.13;5054887;28;20437;-65
2021/01/26 02:28:30;;;;;;;6.13;2.93;;;;;;;1.81;94.50;100359.19;5054883;28;20496;-65
2021/01/26 02:31:15;;;;;;;2.03;1.00;;;;;;;1.74;94.27;100364.72;5054971;28;20436;-64
2021/01/26 02:34:30;;;;;;;1.17;1.07;;;;;;;1.66;94.14;100370.50;5054677;28;20423;-66
2021/01/26 02:37:59;;;;;;;0.50;0.40;;;;;;;1.60;94.55;100368.81;5054837;28;20479;-66
2021/01/26 02:40:34;;;;;;;1.97;1.20;;;;;;;1.42;96.93;100375.25;4973701;28;20522;-65
2021/01/26 02:43:26;;;;;;;0.40;0.30;;;;;;;1.39;97.69;100373.06;5005581;28;20460;-66
2021/01/26 02:46:02;;;;;;;0.97;0.97;;;;;;;1.39;97.72;100373.06;5049390;28;20460;-65
2021/01/26 02:48:40;;;;;;;1.53;0.77;;;;;;;1.38;97.37;100377.59;5056520;28;20485;-64
2021/01/26 02:51:10;;;;;;;0.50;0.40;;;;;;;1.36;97.85;100374.34;5056179;28;20418;-65
2021/01/26 02:53:45;;;;;;;0.80;0.80;;;;;;;1.35;97.40;100372.75;5054688;28;20448;-66
2021/01/26 02:56:21;;;;;;;0.40;0.30;;;;;;;1.32;97.51;100383.09;5054612;28;20425;-65
2021/01/26 02:58:52;;;;;;;0.50;0.50;;;;;;;1.27;97.54;100378.50;5054490;28;20466;-66
2021/01/26 03:01:19;;;;;;;1.40;1.30;;;;;;;1.26;97.61;100372.34;5054270;28;20524;-65
2021/01/26 03:03:50;;;;;;;0.50;0.50;;;;;;;1.18;97.89;100374.63;5054057;28;20533;-66
2021/01/26 03:06:20;;;;;;;0.40;0.30;;;;;;;1.11;98.67;100374.00;5054394;28;20439;-65
2021/01/26 03:08:53;;;;;;;0.47;0.43;;;;;;;1.09;98.48;100368.88;5054152;28;20494;-66
2021/01/26 03:11:25;;;;;;;0.50;0.50;;;;;;;1.08;98.37;100379.81;5053945;28;20856;-65
2021/01/26 03:13:56;;;;;;;1.37;1.27;;;;;;;1.09;98.02;100384.88;5054156;28;20825;-66
2021/01/26 03:16:25;;;;;;;0.40;0.30;;;;;;;1.01;97.99;100379.97;5054131;28;20426;-65
2021/01/26 03:18:59;;;;;;;1.43;0.87;;;;;;;0.98;97.87;100383.94;5053955;28;20475;-65
2021/01/26 03:21:27;;;;;;;0.60;0.53;;;;;;;0.97;97.84;100386.81;5053796;28;20912;-65
2021/01/26 03:23:57;;;;;;;0.57;0.57;;;;;;;0.88;97.20;100389.06;5053939;28;20434;-66
2021/01/26 03:26:27;;;;;;;0.40;0.30;;;;;;;0.73;97.40;100386.97;5053910;28;20496;-66
2021/01/26 03:28:57;;;;;;;0.50;0.40;;;;;;;0.69;97.13;100385.03;5053741;28;21012;-65
2021/01/26 03:31:28;;;;;;;1.93;1.83;;;;;;;0.62;97.23;100381.69;5053626;28;20431;-65
2021/01/26 03:33:55;;;;;;;4.63;1.13;;;;;;;0.52;97.01;100379.69;5053847;28;20426;-65
2021/01/26 03:36:21;;;;;;;0.83;0.80;;;;;;;0.42;97.32;100385.63;5053752;28;20438;-66
2021/01/26 03:38:57;;;;;;;2.87;2.00;;;;;;;0.38;97.60;100386.34;5053598;28;20466;-65
2021/01/26 03:41:24;;;;;;;0.80;0.80;;;;;;;0.40;97.43;100387.75;5053428;28;20425;-65
2021/01/26 03:43:52;;;;;;;1.90;1.53;;;;;;;0.41;97.09;100385.88;5053317;28;20438;-65
2021/01/26 03:46:38;;;;;;;0.40;0.30;;;;;;;0.32;97.25;100389.97;5053427;28;20442;-66
2021/01/26 03:49:17;;;;;;;0.40;0.30;;;;;;;0.33;97.80;100389.72;5053684;28;20490;-65
2021/01/26 03:52:00;;;;;;;0.40;0.30;;;;;;;0.31;97.92;100391.84;5053546;28;20521;-66
2021/01/26 03:54:30;;;;;;;2.60;2.10;;;;;;;0.32;98.45;100401.44;5053494;28;20438;-65
2021/01/26 03:57:39;;;;;;;0.60;0.60;;;;;;;0.38;98.08;100394.34;5053162;28;20466;-66
2021/01/26 04:00:18;;;;;;;0.50;0.30;;;;;;;0.40;98.89;100394.91;5033323;28;20458;-65
2021/01/26 04:03:08;;;;;;;0.40;0.40;;;;;;;0.38;99.59;100389.00;5053391;28;20525;-65
2021/01/26 04:05:40;;;;;;;0.90;0.53;;;;;;;0.40;99.36;100393.06;5053251;28;20423;-65
2021/01/26 04:08:13;;;;;;;1.67;0.80;;;;;;;0.43;99.43;100394.44;5053101;28;20542;-65
2021/01/26 04:10:45;;;;;;;0.53;0.53;;;;;;;0.47;99.01;100395.56;5053307;28;20476;-65
2021/01/26 04:13:16;;;;;;;1.70;1.47;;;;;;;0.36;99.35;100391.94;5052301;28;20957;-65
2021/01/26 04:15:48;;;;;;;0.40;0.30;;;;;;;0.34;99.77;100390.53;5053126;28;20422;-66
2021/01/26 04:18:18;;;;;;;0.53;0.50;;;;;;;0.31;99.88;100386.50;5052665;28;21006;-65
2021/01/26 04:20:44;;;;;;;0.40;0.30;;;;;;;0.25;100.00;100393.56;5053056;28;20445;-65
2021/01/26 04:23:13;;;;;;;0.40;0.30;;;;;;;0.30;100.00;100392.84;5053045;28;20503;-65
2021/01/26 04:25:41;;;;;;;0.40;0.30;;;;;;;0.34;100.00;100387.88;5052693;28;20426;-66
2021/01/26 04:28:10;;;;;;;1.47;0.97;;;;;;;0.36;99.91;100391.13;5052558;28;20988;-65
2021/01/26 04:30:37;;;;;;;4.47;0.87;;;;;;;0.38;99.84;100394.34;5052959;28;20438;-66
2021/01/26 04:33:06;;;;;;;1.10;0.70;;;;;;;0.30;99.80;100390.19;5052983;28;20433;-65
2021/01/26 04:35:33;;;;;;;0.70;0.70;;;;;;;0.31;99.56;100389.16;5052836;28;20442;-65
2021/01/26 04:37:59;;;;;;;1.80;1.67;;;;;;;0.30;99.06;100387.53;5052862;28;20454;-65
2021/01/26 04:40:27;;;;;;;0.40;0.30;;;;;;;0.30;98.62;100392.06;5052843;28;20449;-65
2021/01/26 04:42:59;;;;;;;0.70;0.70;;;;;;;0.24;98.33;100389.31;5052831;28;20450;-65
2021/01/26 04:45:34;;;;;;;0.43;0.43;;;;;;;0.23;98.57;100395.69;5052900;28;20421;-65
2021/01/26 04:48:08;;;;;;;0.50;0.50;;;;;;;0.20;98.41;100393.47;5052663;28;20492;-65
2021/01/26 04:50:45;;;;;;;0.50;0.40;;;;;;;0.15;98.46;100401.38;5052828;28;20425;-66
2021/01/26 04:53:42;;;;;;;5.57;2.50;;;;;;;0.20;98.11;100404.13;5052780;28;20425;-65
2021/01/26 04:56:16;;;;;;;1.73;1.07;;;;;;;0.19;98.29;100402.53;5053004;28;20454;-66
2021/01/26 04:58:55;;;;;;;0.40;0.30;;;;;;;0.15;98.06;100404.03;5055025;28;20516;-65
2021/01/26 05:01:34;;;;;;;0.40;0.30;;;;;;;0.17;97.98;100393.94;5056344;28;20909;-66
2021/01/26 05:04:06;;;;;;;0.40;0.40;;;;;;;0.12;97.96;100396.50;5056670;28;20436;-65
2021/01/26 05:06:37;;;;;;;1.17;0.90;;;;;;;0.06;97.64;100394.81;5056645;28;20520;-66
2021/01/26 05:09:07;;;;;;;3.20;1.33;;;;;;;0.09;97.30;100394.34;5056430;28;20493;-65
2021/01/26 05:11:38;;;;;;;0.53;0.53;;;;;;;0.07;97.62;100398.28;5056449;28;20434;-66
2021/01/26 05:14:13;;;;;;;0.40;0.30;;;;;;;0.09;97.54;100398.84;5056503;28;20476;-66
2021/01/26 05:16:47;;;;;;;3.60;0.97;;;;;;;0.08;97.57;100398.03;5056414;28;20475;-66
2021/01/26 05:19:18;;;;;;;0.70;0.63;;;;;;;0.04;97.81;100399.53;5056275;28;20507;-65
2021/01/26 05:21:47;;;;;;;0.53;0.53;;;;;;;0.05;98.26;100395.84;5056348;28;20423;-66
2021/01/26 05:24:21;;;;;;;0.50;0.50;;;;;;;-0.03;99.08;100401.56;5055952;28;20430;-65
2021/01/26 05:26:47;;;;;;;0.40;0.30;;;;;;;0.03;98.96;100403.25;5056240;28;20430;-66
2021/01/26 05:29:14;;;;;;;0.80;0.80;;;;;;;0.02;98.64;100396.31;5055761;28;20868;-65
2021/01/26 05:31:41;;;;;;;1.23;1.13;;;;;;;0.04;98.07;100399.53;5056009;28;20453;-66
2021/01/26 05:34:11;;;;;;;0.40;0.30;;;;;;;0.01;98.10;100400.03;5056064;28;20499;-66
2021/01/26 05:36:41;;;;;;;5.70;1.17;;;;;;;0.01;97.99;100401.88;5056019;28;20430;-66
2021/01/26 05:39:14;;;;;;;1.03;0.63;;;;;;;-0.03;98.13;100398.88;5055638;28;20997;-65
2021/01/26 05:41:40;;;;;;;0.73;0.73;;;;;;;0.01;98.23;100405.34;5055859;28;20430;-65
2021/01/26 05:44:06;;;;;;;0.40;0.40;;;;;;;0.00;98.30;100403.75;5055896;28;20460;-65
2021/01/26 05:46:40;;;;;;;0.40;0.30;;;;;;;-0.03;98.81;100402.34;5055630;28;20784;-65
2021/01/26 05:49:06;;;;;;;0.40;0.33;;;;;;;-0.03;99.00;100412.19;5055737;28;20855;-65
2021/01/26 05:51:35;;;;;;;1.80;0.70;;;;;;;-0.05;98.56;100411.59;5055746;28;20434;-65
2021/01/26 05:54:05;;;;;;;1.00;0.90;;;;;;;-0.07;98.55;100411.84;5055693;28;20442;-65
2021/01/26 05:56:34;;;;;;;0.40;0.30;;;;;;;-0.07;97.85;100411.84;5054853;28;20461;-65
2021/01/26 05:59:19;;;;;;;0.40;0.40;;;;;;;-0.09;98.06;100411.28;5055268;28;20467;-64
2021/01/26 06:01:45;;;;;;;1.03;0.53;;;;;;;-0.17;98.42;100411.66;5055523;28;20432;-64
2021/01/26 06:04:13;;;;;;;0.40;0.30;;;;;;;-0.18;98.11;100417.19;5055417;28;20450;-64
2021/01/26 06:06:51;;;;;;;0.43;0.37;;;;;;;-0.18;98.07;100422.50;5055680;28;21126;-63
2021/01/26 06:09:33;;;;;;;0.93;0.93;;;;;;;-0.29;97.30;100416.97;5056644;28;20516;-64
2021/01/26 06:12:08;;;;;;;2.40;0.83;;;;;;;-0.26;97.46;100416.53;5056600;28;20426;-63
2021/01/26 06:14:35;;;;;;;0.40;0.30;;;;;;;-0.26;97.97;100421.84;5055339;28;20836;-63
2021/01/26 06:17:06;;;;;;;0.40;0.40;;;;;;;-0.14;98.14;100427.13;5055405;28;20788;-65
2021/01/26 06:19:33;;;;;;;2.10;1.07;;;;;;;-0.09;97.85;100429.09;5055212;28;20458;-63
2021/01/26 06:21:59;;;;;;;0.47;0.47;;;;;;;-0.15;97.85;100427.38;5055443;28;20446;-62
2021/01/26 06:24:27;;;;;;;0.80;0.80;;;;;;;-0.19;98.02;100434.22;5056750;28;20442;-63
2021/01/26 06:27:18;;;;;;;0.50;0.47;;;;;;;-0.10;97.96;100430.94;5057540;28;20536;-64
2021/01/26 06:29:53;;;;;;;0.80;0.80;;;;;;;0.02;97.84;100444.25;5058680;28;20520;-63
2021/01/26 06:32:29;;;;;;;2.10;1.40;;;;;;;0.03;96.81;100440.53;5059075;28;20433;-63
2021/01/26 06:35:23;;;;;;;0.40;0.30;;;;;;;0.05;96.65;100443.78;5059190;28;20797;-64
2021/01/26 06:38:00;;;;;;;1.53;0.97;;;;;;;0.07;96.41;100447.00;5050185;28;20470;-63
2021/01/26 06:40:47;;;;;;;1.43;1.30;;;;;;;0.07;96.35;100447.00;5059982;28;20434;-63
2021/01/26 06:43:31;;;;;;;0.40;0.30;;;;;;;0.09;96.61;100447.59;5059860;28;20434;-63
2021/01/26 06:46:07;;;;;;;1.93;1.80;;;;;;;0.05;96.58;100451.78;5060228;28;20643;-63
2021/01/26 06:49:02;;;;;;;0.53;0.50;;;;;;;0.08;96.44;100450.47;5060295;28;20503;-63
2021/01/26 06:51:40;;;;;;;0.97;0.83;;;;;;;0.04;96.15;100450.13;5055988;28;20503;-63
2021/01/26 06:54:26;;;;;;;1.13;0.90;;;;;;;0.02;96.62;100449.56;5059977;28;20474;-63
2021/01/26 06:57:09;;;;;;;0.40;0.30;;;;;;;-0.02;97.41;100448.41;5059276;28;20482;-64
2021/01/26 07:00:02;;;;;;;0.83;0.83;;;;;;;-0.05;97.88;100448.88;5057690;28;20459;-64
2021/01/26 07:02:56;;;;;;;3.33;1.50;;;;;;;-0.07;98.05;100449.13;5054403;28;20484;-64
2021/01/26 07:05:35;;;;;;;0.50;0.40;;;;;;;-0.01;97.46;100448.16;5054195;28;20797;-65
2021/01/26 07:08:19;;;;;;;0.90;0.70;;;;;;;0.02;97.54;100449.56;5054268;28;20446;-65
2021/01/26 07:11:04;;;;;;;0.50;0.40;;;;;;;0.03;97.78;100445.84;5054593;28;20434;-64
2021/01/26 07:13:35;;;;;;;0.50;0.50;;;;;;;0.03;97.32;100445.84;5054504;28;20435;-66
2021/01/26 07:16:34;;;;;;;0.40;0.30;;;;;;;0.01;97.30;100447.97;5054647;28;20433;-65
2021/01/26 07:19:50;;;;;;;1.60;1.50;;;;;;;0.03;97.18;100451.19;5053777;28;20988;-65
2021/01/26 07:23:00;;;;;;;0.57;0.57;;;;;;;0.08;97.23;100464.59;5053603;28;20437;-65
2021/01/26 07:25:31;;;;;;;9.10;4.60;;;;;;;0.09;97.08;100466.25;4972958;28;21014;-64
2021/01/26 07:28:47;;;;;;;1.37;1.13;;;;;;;0.14;97.64;100462.88;5036956;28;21080;-65
2021/01/26 07:31:20;;;;;;;2.83;2.40;;;;;;;0.21;96.32;100469.66;5011506;28;20439;-65
2021/01/26 07:33:52;;;;;;;1.30;0.93;;;;;;;0.13;95.67;100474.53;5011874;28;20416;-66
2021/01/26 07:36:26;;;;;;;1.33;0.60;;;;;;;0.08;95.50;100469.91;5038629;28;20440;-65
2021/01/26 07:39:02;;;;;;;3.13;1.80;;;;;;;0.18;95.69;100480.81;5053713;28;20488;-66
2021/01/26 07:41:35;;;;;;;1.40;1.30;;;;;;;0.18;95.56;100480.81;5053585;28;20422;-64
2021/01/26 07:44:11;;;;;;;1.43;0.93;;;;;;;0.18;95.79;100475.47;5053264;28;20894;-65
2021/01/26 07:46:44;;;;;;;6.53;1.00;;;;;;;0.18;95.39;100480.81;5053709;28;20426;-63
2021/01/26 07:49:14;;;;;;;0.40;0.30;;;;;;;0.25;95.34;100478.00;5061118;22;20500;-77
2021/01/26 07:51:45;;;;;;;0.50;0.50;;;;;;;0.28;95.44;100484.72;5051935;28;20458;-78
2021/01/26 07:54:15;;;;;;;0.97;0.93;;;;;;;0.33;95.48;100476.81;5034899;28;20423;-77
2021/01/26 07:56:42;;;;;;;0.40;0.30;;;;;;;0.37;95.35;100483.31;5036472;28;20482;-78
2021/01/26 07:59:12;;;;;;;0.53;0.47;;;;;;;0.58;95.94;100489.84;5037179;28;20447;-78
2021/01/26 08:01:43;;;;;;;0.40;0.30;;;;;;;0.53;95.65;100493.19;5036664;28;20521;-78
2021/01/26 08:04:09;;;;;;;0.93;0.93;;;;;;;0.54;95.40;100492.19;5036220;28;20438;-77
2021/01/26 08:06:50;;;;;;;1.27;0.67;;;;;;;0.54;96.15;100494.84;5036430;28;20478;-78
2021/01/26 08:09:21;;;;;;;0.40;0.30;;;;;;;0.61;95.46;100492.03;5036977;28;20459;-78
2021/01/26 08:11:55;;;;;;;0.40;0.30;;;;;;;0.60;95.08;100491.22;5036627;28;20463;-78
2021/01/26 08:14:27;;;;;;;0.50;0.40;;;;;;;0.62;94.27;100502.47;5035561;28;20431;-78
2021/01/26 08:16:56;;;;;;;0.50;0.40;;;;;;;0.61;94.61;100495.50;5037430;28;20876;-78
2021/01/26 08:19:26;;;;;;;1.07;0.97;;;;;;;0.68;94.34;100500.69;5035344;28;20439;-77
2021/01/26 08:21:56;;;;;;;0.60;0.50;;;;;;;0.79;95.10;100501.69;5036484;28;20470;-78
2021/01/26 08:24:33;;;;;;;1.53;0.83;;;;;;;0.95;95.00;100506.25;5036595;28;20589;-78
2021/01/26 08:27:32;;;;;;;0.40;0.30;;;;;;;1.00;94.55;100501.81;5036610;28;20573;-78
2021/01/26 08:30:00;;;;;;;1.93;0.70;;;;;;;1.16;94.53;100508.25;5035879;28;20517;-78
2021/01/26 08:32:47;;;;;;;0.40;0.30;;;;;;;1.31;93.93;100515.69;5037088;28;21035;-78
2021/01/26 08:35:36;;;;;;;0.40;0.30;;;;;;;1.35;92.13;100510.69;5040816;28;20433;-78
2021/01/26 08:38:04;;;;;;;0.50;0.47;;;;;;;1.38;92.70;100521.69;5040832;28;20489;-78
2021/01/26 08:41:04;;;;;;;0.60;0.40;;;;;;;1.47;92.63;100524.75;5040629;28;20856;-78
2021/01/26 08:43:49;;;;;;;0.97;0.50;;;;;;;1.52;92.64;100532.84;5040256;28;21053;-78
2021/01/26 08:46:37;;;;;;;3.30;0.70;;;;;;;1.58;91.65;100521.19;5041414;28;20419;-78
2021/01/26 08:49:18;;;;;;;0.50;0.50;;;;;;;1.72;90.91;100527.00;5041156;28;20494;-78
2021/01/26 08:51:44;;;;;;;0.40;0.30;;;;;;;1.89;90.14;100524.34;5040678;28;20545;-78
2021/01/26 08:54:31;;;;;;;2.80;2.60;;;;;;;2.14;89.21;100529.25;5040533;28;20557;-79
2021/01/26 08:56:57;;;;;;;1.13;0.53;;;;;;;2.26;89.14;100530.75;5041013;28;20941;-78
2021/01/26 09:06:43;;;;;;;0.40;0.30;;;;;;;2.31;88.94;100547.91;5040958;28;20418;-79
2021/01/26 09:09:12;;;;;;;0.60;0.60;;;;;;;2.42;88.42;100547.78;5042010;28;20495;-78
2021/01/26 09:11:42;;;;;;;1.63;1.27;;;;;;;2.59;88.40;100547.72;5041278;28;20933;-78
2021/01/26 09:14:32;;;;;;;0.40;0.20;;;;;;;2.81;87.51;100549.59;5041102;28;20798;-78
2021/01/26 09:17:01;;;;;;;1.57;0.80;;;;;;;2.88;86.34;100555.53;5036238;28;20544;-78
2021/01/26 09:19:32;;;;;;;0.43;0.33;;;;;;;2.80;85.19;100564.81;5042178;28;20479;-78
2021/01/26 09:22:06;;;;;;;0.40;0.30;;;;;;;2.61;85.49;100558.16;5042141;28;20471;-78
2021/01/26 09:24:36;;;;;;;0.67;0.67;;;;;;;2.47;86.15;100563.06;5042758;28;20850;-78
2021/01/26 09:27:19;;;;;;;5.13;1.07;;;;;;;2.36;87.20;100564.00;5041437;28;20458;-78
2021/01/26 09:29:45;;;;;;;1.23;0.83;;;;;;;2.27;87.80;100560.94;5041735;28;20509;-78
2021/01/26 09:32:11;;;;;;;2.80;0.90;;;;;;;2.18;89.38;100563.22;5040394;28;20467;-78
2021/01/26 09:34:37;;;;;;;2.60;0.50;;;;;;;2.20;89.67;100565.66;5041270;28;20458;-78
2021/01/26 09:37:13;;;;;;;4.43;0.93;;;;;;;2.11;89.62;100572.47;5041156;28;20535;-78
2021/01/26 09:39:41;;;;;;;0.40;0.30;;;;;;;2.10;90.53;100566.31;5041901;28;20898;-78
2021/01/26 09:42:17;;;;;;;0.50;0.47;;;;;;;2.08;90.18;100572.94;5042207;28;20540;-79
2021/01/26 09:44:55;;;;;;;0.60;0.60;;;;;;;2.10;90.23;100574.31;5042299;28;20960;-78
2021/01/26 09:47:22;;;;;;;0.63;0.60;;;;;;;2.02;90.29;100577.41;5042920;28;20953;-78
2021/01/26 09:49:49;;;;;;;1.03;0.97;;;;;;;2.03;90.31;100577.16;5041491;28;21068;-78
2021/01/26 09:52:18;;;;;;;0.93;0.93;;;;;;;2.02;91.36;100586.22;5039353;28;21046;-78
2021/01/26 09:54:50;;;;;;;0.40;0.30;;;;;;;2.08;91.10;100583.63;5036375;28;20538;-78
2021/01/26 09:57:18;;;;;;;4.00;0.70;;;;;;;2.14;90.67;100588.81;5037241;28;20455;-77
2021/01/26 09:59:45;;;;;;;0.60;0.60;;;;;;;2.22;91.10;100584.94;5036778;28;20447;-77
2021/01/26 10:02:17;;;;;;;2.67;2.20;;;;;;;2.24;90.70;100583.63;5036220;28;20552;-77
2021/01/26 10:04:44;;;;;;;0.60;0.60;;;;;;;2.35;89.84;100579.22;5036578;28;20462;-77
2021/01/26 10:07:14;;;;;;;2.47;0.80;;;;;;;2.40;89.67;100583.84;5039207;28;20467;-79
2021/01/26 10:09:41;;;;;;;0.50;0.40;;;;;;;2.53;89.61;100588.84;5038453;28;20636;-77
2021/01/26 10:12:33;;;;;;;0.53;0.53;;;;;;;2.66;89.34;100588.47;5036939;28;20483;-77
2021/01/26 10:15:33;;;;;;;0.40;0.30;;;;;;;2.73;88.29;100593.63;5038466;28;21019;-78
2021/01/26 10:18:07;;;;;;;0.40;0.30;;;;;;;2.82;87.78;100599.34;5032909;28;21040;-78
2021/01/26 10:20:36;;;;;;;0.40;0.30;;;;;;;2.90;87.83;100593.56;5046941;28;20424;-78
2021/01/26 10:23:05;;;;;;;2.30;0.90;;;;;;;2.87;87.22;100592.16;5047508;28;20646;-78
2021/01/26 10:25:32;;;;;;;0.93;0.87;;;;;;;2.86;87.20;100603.94;5043479;28;20470;-77
2021/01/26 10:28:07;;;;;;;0.57;0.50;;;;;;;2.87;87.33;100604.75;5043651;28;20474;-78
2021/01/26 10:30:40;;;;;;;0.70;0.70;;;;;;;2.85;87.79;100604.19;5044267;28;20434;-78
2021/01/26 10:33:06;;;;;;;1.70;0.43;;;;;;;2.94;88.23;100616.06;5046062;28;20506;-78
2021/01/26 10:35:36;;;;;;;3.30;0.93;;;;;;;3.02;87.63;100611.09;5043516;28;20510;-78
2021/01/26 10:38:27;;;;;;;1.03;1.03;;;;;;;3.12;87.62;100613.06;5043425;28;20529;-78
2021/01/26 10:41:06;;;;;;;0.67;0.67;;;;;;;3.17;86.67;100606.97;5041929;28;20457;-79
2021/01/26 10:43:33;;;;;;;5.80;3.60;;;;;;;3.13;86.89;100611.19;5042676;28;20514;-79
2021/01/26 10:45:59;;;;;;;0.50;0.40;;;;;;;3.09;86.82;100607.41;5042004;28;20586;-78
2021/01/26 10:48:30;;;;;;;0.70;0.70;;;;;;;3.06;86.88;100610.59;5042967;28;20486;-78
2021/01/26 10:51:09;;;;;;;3.03;2.73;;;;;;;2.93;87.78;100611.78;5046181;28;20890;-78
2021/01/26 10:53:36;;;;;;;0.60;0.43;;;;;;;2.93;88.27;100609.13;5044797;28;20505;-78
2021/01/26 10:56:03;;;;;;;0.40;0.30;;;;;;;3.05;88.49;100607.09;5048467;28;20450;-78
2021/01/26 10:58:30;;;;;;;5.33;2.03;;;;;;;3.09;87.97;100605.53;5049440;28;20483;-78
2021/01/26 11:00:57;;;;;;;0.83;0.83;;;;;;;3.10;88.07;100601.00;5050280;28;20486;-78
2021/01/26 11:03:23;;;;;;;5.97;1.73;;;;;;;3.10;87.39;100604.50;5046051;28;20502;-79
2021/01/26 11:05:49;;;;;;;0.40;0.30;;;;;;;3.10;87.47;100599.16;5044872;28;20455;-78
2021/01/26 11:08:15;;;;;;;3.37;0.73;;;;;;;3.10;87.49;100599.16;5050666;28;20494;-78
2021/01/26 11:10:41;;;;;;;0.80;0.80;;;;;;;3.19;87.96;100604.88;5050909;28;20470;-78
2021/01/26 11:13:08;;;;;;;0.40;0.30;;;;;;;3.28;87.72;100598.00;5049993;28;20523;-78
2021/01/26 11:15:35;;;;;;;1.33;1.23;;;;;;;3.29;86.88;100600.41;5045206;28;20526;-77
2021/01/26 11:18:01;;;;;;;2.80;0.83;;;;;;;3.40;86.45;100600.50;5037767;28;20534;-77
2021/01/26 11:20:28;;;;;;;8.17;3.13;;;;;;;3.42;85.94;100596.53;5036155;28;20956;-77
2021/01/26 11:22:54;;;;;;;2.17;1.70;;;;;;;3.39;86.40;100593.53;5034855;28;20512;-77
2021/01/26 11:25:22;;;;;;;2.70;1.63;;;;;;;3.47;86.37;100587.72;5034152;28;20553;-77
2021/01/26 11:27:48;;;;;;;0.73;0.60;;;;;;;3.59;86.73;100599.09;5034408;28;20451;-77
2021/01/26 11:30:16;;;;;;;6.33;3.47;;;;;;;3.62;85.62;100609.28;5034949;28;20970;-77
2021/01/26 11:32:42;;;;;;;1.63;1.50;;;;;;;3.69;86.05;100601.84;5034523;28;20605;-77
2021/01/26 11:35:13;;;;;;;2.60;1.40;;;;;;;3.92;85.05;100610.63;5034477;28;20531;-77
2021/01/26 11:37:39;;;;;;;2.00;1.37;;;;;;;4.15;84.90;100610.25;5034366;28;20506;-76
2021/01/26 11:40:07;;;;;;;2.43;1.33;;;;;;;4.36;85.12;100611.19;5032971;28;20457;-76
2021/01/26 11:42:33;;;;;;;0.73;0.73;;;;;;;4.53;83.95;100613.72;5034146;28;20597;-76
2021/01/26 11:44:59;;;;;;;1.57;1.20;;;;;;;4.55;81.82;100622.28;5034313;28;20541;-76
2021/01/26 11:47:25;;;;;;;3.90;0.90;;;;;;;4.46;83.14;100618.50;5033861;28;20486;-76
2021/01/26 11:49:52;;;;;;;1.73;1.03;;;;;;;4.64;82.12;100626.09;5033555;28;20487;-76
2021/01/26 11:52:19;;;;;;;0.70;0.40;;;;;;;4.80;81.64;100632.34;5033994;28;20879;-77
2021/01/26 11:54:45;;;;;;;1.13;0.80;;;;;;;4.88;80.41;100633.75;5034212;28;20538;-77
2021/01/26 11:57:11;;;;;;;0.40;0.30;;;;;;;4.60;81.35;100630.38;5033895;28;20520;-77
2021/01/26 11:59:37;;;;;;;3.20;1.50;;;;;;;4.45;81.53;100627.59;5033611;28;20952;-77
2021/01/26 12:02:04;;;;;;;2.47;2.30;;;;;;;4.49;81.86;100628.72;5033824;28;20558;-77
2021/01/26 12:04:30;;;;;;;4.53;1.73;;;;;;;4.48;81.58;100627.91;5033739;28;20458;-76
2021/01/26 12:06:56;;;;;;;1.40;1.00;;;;;;;4.40;81.48;100630.25;5033632;28;20531;-76